createdAt,value
2019-06-07T00:00:50.963Z,6.80
2019-06-07T00:03:29.035Z,7.17
2019-06-07T00:05:51.152Z,6.70
2019-06-07T00:08:27.184Z,6.23
2019-06-07T00:10:51.751Z,6.20
2019-06-07T00:13:21.004Z,6.57
2019-06-07T00:15:50.270Z,6.67
2019-06-07T00:18:25.685Z,6.40
2019-06-07T00:20:50.911Z,6.00
2019-06-07T00:23:22.726Z,6.10
2019-06-07T00:25:51.319Z,6.60
2019-06-07T00:28:20.505Z,6.67
2019-06-07T00:30:52.020Z,6.50
2019-06-07T00:33:24.072Z,6.37
2019-06-07T00:35:51.908Z,6.60
2019-06-07T00:38:21.950Z,6.63
2019-06-07T00:40:51.360Z,7.47
2019-06-07T00:43:28.034Z,7.13
2019-06-07T00:45:51.485Z,7.83
2019-06-07T00:48:31.325Z,7.37
2019-06-07T00:50:51.621Z,7.30
2019-06-07T00:53:31.059Z,7.90
2019-06-07T00:55:52.344Z,7.60
2019-06-07T00:58:27.175Z,7.60
2019-06-07T01:00:52.483Z,8.23
2019-06-07T01:03:25.258Z,9.40
2019-06-07T01:05:52.906Z,8.90
2019-06-07T01:08:27.710Z,8.30
2019-06-07T01:10:54.455Z,9.03
2019-06-07T01:13:26.473Z,8.70
2019-06-07T01:15:54.702Z,9.20
2019-06-07T01:18:37.360Z,8.60
2019-06-07T01:20:55.120Z,9.07
2019-06-07T01:24:03.208Z,8.87
2019-06-07T01:25:56.144Z,8.53
2019-06-07T01:28:27.084Z,8.93
2019-06-07T01:30:56.831Z,9.07
2019-06-07T01:33:50.260Z,9.20
2019-06-07T01:36:06.401Z,9.03
2019-06-07T01:38:35.668Z,8.80
2019-06-07T01:41:05.282Z,8.57
2019-06-07T01:43:34.902Z,9.40
2019-06-07T01:46:04.082Z,9.20
2019-06-07T01:48:48.915Z,9.20
2019-06-07T01:51:05.275Z,8.80
2019-06-07T01:53:34.773Z,9.37
2019-06-07T01:56:04.130Z,9.63
2019-06-07T01:58:33.678Z,9.20
2019-06-07T02:01:03.296Z,9.20
2019-06-07T02:03:33.392Z,9.27
2019-06-07T02:06:02.958Z,9.17
2019-06-07T02:08:34.375Z,9.10
2019-06-07T02:11:06.036Z,9.77
2019-06-07T02:13:35.365Z,9.23
2019-06-07T02:16:04.648Z,9.30
2019-06-07T02:18:35.059Z,9.30
2019-06-07T02:21:04.867Z,8.93
2019-06-07T02:23:34.231Z,9.47
2019-06-07T02:26:03.884Z,9.43
2019-06-07T02:28:44.628Z,8.77
2019-06-07T02:31:04.056Z,8.57
2019-06-07T02:33:39.586Z,8.77
2019-06-07T02:36:04.672Z,8.60
2019-06-07T02:38:37.493Z,8.70
2019-06-07T02:41:05.209Z,8.83
2019-06-07T02:43:36.910Z,8.77
2019-06-07T02:46:25.481Z,8.83
2019-06-07T02:48:41.556Z,8.47
2019-06-07T02:51:10.891Z,9.13
2019-06-07T02:53:40.512Z,9.33
2019-06-07T02:56:37.264Z,8.97
2019-06-07T02:58:42.065Z,9.40
2019-06-07T03:01:12.012Z,9.10
2019-06-07T03:03:41.826Z,9.23
2019-06-07T03:06:13.582Z,9.13
2019-06-07T03:08:46.179Z,9.17
2019-06-07T03:11:16.484Z,9.33
2019-06-07T03:13:48.042Z,9.60
2019-06-07T03:16:23.563Z,9.80
2019-06-07T03:19:06.525Z,9.93
2019-06-07T03:21:41.850Z,9.27
2019-06-07T03:24:11.274Z,8.90
2019-06-07T03:27:32.186Z,9.50
2019-06-07T03:29:11.905Z,9.73
2019-06-07T03:31:47.576Z,9.70
2019-06-07T03:34:13.338Z,9.30
2019-06-07T03:36:42.619Z,10.30
2019-06-07T03:39:11.774Z,9.57
2019-06-07T03:42:02.549Z,9.60
2019-06-07T03:44:14.093Z,9.23
2019-06-07T03:46:43.671Z,9.00
2019-06-07T03:49:12.868Z,9.30
2019-06-07T03:51:42.487Z,8.47
2019-06-07T03:54:11.701Z,9.10
2019-06-07T03:56:41.249Z,9.50
2019-06-07T03:59:10.492Z,9.47
2019-06-07T04:01:41.297Z,9.03
2019-06-07T04:04:10.671Z,9.33
2019-06-07T04:06:42.458Z,8.90
2019-06-07T04:09:11.139Z,9.23
2019-06-07T04:11:40.898Z,8.53
2019-06-07T04:14:10.652Z,8.87
2019-06-07T04:16:44.118Z,8.80
2019-06-07T04:19:10.789Z,9.30
2019-06-07T04:21:42.805Z,9.17
2019-06-07T04:24:11.076Z,8.93
2019-06-07T04:26:43.595Z,8.80
2019-06-07T04:31:43.295Z,7.87
2019-06-07T04:34:12.767Z,8.80
2019-06-07T04:36:56.285Z,8.53
2019-06-07T04:39:13.677Z,7.87
2019-06-07T04:41:46.272Z,8.13
2019-06-07T04:44:17.213Z,8.37
2019-06-07T04:46:49.729Z,8.10
2019-06-07T04:49:21.548Z,7.70
2019-06-07T04:51:51.535Z,7.67
2019-06-07T04:54:20.868Z,7.30
2019-06-07T04:56:50.373Z,7.80
2019-06-07T05:00:01.236Z,7.90
2019-06-07T05:01:53.164Z,7.20
2019-06-07T05:04:31.734Z,7.20
2019-06-07T05:07:00.944Z,7.33
2019-06-07T05:09:32.685Z,6.93
2019-06-07T05:12:02.117Z,6.87
2019-06-07T05:14:33.196Z,7.00
2019-06-07T05:17:02.390Z,6.77
2019-06-07T05:19:35.209Z,7.07
2019-06-07T05:22:05.093Z,6.73
2019-06-07T05:24:35.577Z,6.70
2019-06-07T05:27:07.769Z,5.97
2019-06-07T05:29:39.220Z,7.07
2019-06-07T05:32:08.629Z,6.23
2019-06-07T05:34:42.014Z,6.97
2019-06-07T05:37:11.991Z,6.90
2019-06-07T05:39:42.570Z,6.40
2019-06-07T05:42:10.740Z,6.10
2019-06-07T05:44:44.127Z,6.47
2019-06-07T05:47:11.466Z,6.23
2019-06-07T05:49:44.520Z,6.00
2019-06-07T05:52:11.868Z,7.03
2019-06-07T05:54:43.179Z,6.17
2019-06-07T05:57:12.207Z,6.97
2019-06-07T05:59:44.887Z,6.43
2019-06-07T06:02:22.153Z,5.87
2019-06-07T06:04:48.707Z,6.17
2019-06-07T06:07:15.095Z,6.27
2019-06-07T06:09:46.120Z,5.90
2019-06-07T06:12:33.441Z,6.10
2019-06-07T06:14:47.059Z,6.23
2019-06-07T06:17:16.469Z,6.40
2019-06-07T06:19:49.650Z,6.70
2019-06-07T06:22:16.639Z,5.80
2019-06-07T06:25:24.305Z,5.83
2019-06-07T06:27:55.609Z,6.70
2019-06-07T06:29:50.413Z,6.43
2019-06-07T06:34:53.671Z,6.27
2019-06-07T06:37:21.570Z,5.73
2019-06-07T06:39:50.862Z,6.07
2019-06-07T06:42:20.070Z,6.00
2019-06-07T06:44:53.864Z,6.07
2019-06-07T06:47:20.616Z,5.83
2019-06-07T06:49:53.970Z,5.10
2019-06-07T06:52:20.855Z,5.70
2019-06-07T06:54:59.224Z,5.37
2019-06-07T06:57:21.015Z,5.47
2019-06-07T06:59:52.531Z,5.90
2019-06-07T07:02:21.560Z,5.97
2019-06-07T07:04:53.440Z,6.47
2019-06-07T07:07:22.996Z,5.97
2019-06-07T07:09:59.028Z,5.87
2019-06-07T07:12:24.308Z,5.60
2019-06-07T07:14:56.047Z,6.10
2019-06-07T07:17:46.946Z,5.80
2019-06-07T07:19:56.161Z,5.67
2019-06-07T07:22:25.807Z,5.50
2019-06-07T07:24:55.090Z,6.27
2019-06-07T07:27:24.393Z,5.53
2019-06-07T07:30:30.016Z,5.37
2019-06-07T07:32:24.748Z,5.10
2019-06-07T07:35:00.085Z,5.00
2019-06-07T07:37:25.341Z,4.97
2019-06-07T07:40:01.676Z,4.80
2019-06-07T07:42:25.495Z,5.30
2019-06-07T07:44:56.718Z,5.10
2019-06-07T07:47:26.018Z,4.47
2019-06-07T07:49:58.772Z,4.63
2019-06-07T07:52:26.687Z,5.30
2019-06-07T07:54:58.182Z,4.17
2019-06-07T07:57:27.135Z,4.73
2019-06-07T08:00:24.748Z,4.60
2019-06-07T08:02:27.940Z,4.77
2019-06-07T08:05:22.488Z,4.70
2019-06-07T08:07:28.646Z,4.20
2019-06-07T08:10:02.944Z,4.43
2019-06-07T08:12:29.479Z,4.30
2019-06-07T08:15:03.254Z,4.10
2019-06-07T08:17:30.524Z,4.30
2019-06-07T08:20:02.989Z,4.27
2019-06-07T08:22:30.791Z,3.80
2019-06-07T08:25:04.173Z,3.70
2019-06-07T08:27:31.635Z,3.33
2019-06-07T08:30:25.707Z,3.70
2019-06-07T08:32:32.365Z,3.50
2019-06-07T08:35:06.218Z,3.20
2019-06-07T08:38:13.971Z,3.23
2019-06-07T08:40:04.377Z,3.40
2019-06-07T08:42:37.229Z,3.50
2019-06-07T08:45:06.032Z,3.40
2019-06-07T08:47:35.333Z,3.30
2019-06-07T08:50:07.899Z,2.90
2019-06-07T08:52:36.277Z,3.93
2019-06-07T08:55:06.081Z,3.30
2019-06-07T08:57:35.631Z,3.53
2019-06-07T09:00:41.812Z,3.67
2019-06-07T09:02:38.186Z,3.97
2019-06-07T09:05:12.450Z,3.40
2019-06-07T09:07:39.678Z,3.30
2019-06-07T09:10:14.790Z,3.30
2019-06-07T09:12:41.450Z,3.50
2019-06-07T09:15:22.672Z,3.40
2019-06-07T09:18:30.620Z,3.60
2019-06-07T09:20:35.815Z,3.43
2019-06-07T09:22:46.965Z,3.33
2019-06-07T09:25:21.044Z,3.40
2019-06-07T09:27:47.602Z,3.20
2019-06-07T09:30:38.249Z,3.03
2019-06-07T09:33:08.942Z,3.53
2019-06-07T09:35:39.371Z,3.20
2019-06-07T09:38:23.629Z,2.60
2019-06-07T09:40:40.241Z,2.93
2019-06-07T09:45:40.861Z,2.80
2019-06-07T09:48:16.241Z,2.87
2019-06-07T09:50:41.553Z,2.87
2019-06-07T09:53:21.776Z,2.73
2019-06-07T09:55:43.048Z,2.60
2019-06-07T10:00:43.283Z,2.60
2019-06-07T10:03:21.377Z,2.70
2019-06-07T10:05:44.670Z,2.73
2019-06-07T10:09:15.152Z,2.70
2019-06-07T10:10:45.003Z,2.70
2019-06-07T10:13:14.514Z,2.50
2019-06-07T10:15:44.053Z,2.50
2019-06-07T10:18:13.236Z,2.70
2019-06-07T10:20:42.946Z,2.60
2019-06-07T10:23:12.198Z,2.30
2019-06-07T10:25:41.435Z,2.60
2019-06-07T10:28:10.684Z,2.63
2019-06-07T10:30:39.923Z,2.80
2019-06-07T10:33:10.484Z,2.40
2019-06-07T10:35:39.893Z,2.40
2019-06-07T10:38:10.646Z,2.60
2019-06-07T10:40:40.484Z,2.73
2019-06-07T10:43:14.028Z,3.20
2019-06-07T10:45:41.037Z,2.67
2019-06-07T10:48:11.747Z,2.60
2019-06-07T10:50:41.574Z,2.77
2019-06-07T10:53:12.478Z,2.60
2019-06-07T10:55:41.864Z,2.60
2019-06-07T10:58:11.266Z,2.57
2019-06-07T11:00:40.862Z,2.90
2019-06-07T11:03:11.805Z,2.50
2019-06-07T11:05:41.507Z,2.17
2019-06-07T11:08:13.094Z,2.10
2019-06-07T11:10:41.665Z,2.47
2019-06-07T11:13:12.379Z,2.20
2019-06-07T11:15:41.755Z,2.07
2019-06-07T11:18:12.552Z,1.70
2019-06-07T11:20:42.214Z,1.43
2019-06-07T11:23:12.272Z,1.60
2019-06-07T11:25:41.492Z,1.70
2019-06-07T11:28:12.560Z,1.47
2019-06-07T11:30:41.926Z,1.60
2019-06-07T11:33:12.347Z,1.50
2019-06-07T11:35:42.526Z,1.57
2019-06-07T11:38:12.622Z,1.50
2019-06-07T11:40:42.117Z,1.50
2019-06-07T11:43:12.744Z,1.60
2019-06-07T11:45:42.146Z,1.67
2019-06-07T11:48:11.502Z,1.70
2019-06-07T11:50:41.140Z,1.60
2019-06-07T11:53:10.776Z,1.70
2019-06-07T11:55:40.172Z,1.60
2019-06-07T11:58:13.192Z,1.53
2019-06-07T12:00:41.205Z,1.77
2019-06-07T12:03:11.548Z,1.83
2019-06-07T12:05:40.963Z,1.70
2019-06-07T12:08:10.268Z,1.73
2019-06-07T12:10:42.477Z,1.77
2019-06-07T12:13:10.992Z,1.60
2019-06-07T12:15:40.237Z,2.00
2019-06-07T12:18:09.437Z,1.70
2019-06-07T12:20:38.825Z,1.80
2019-06-07T12:23:09.971Z,2.00
2019-06-07T12:25:39.424Z,1.60
2019-06-07T12:28:08.773Z,1.87
2019-06-07T12:30:37.996Z,1.90
2019-06-07T12:33:07.359Z,2.00
2019-06-07T12:35:36.700Z,1.80
2019-06-07T12:38:06.366Z,1.57
2019-06-07T12:40:35.655Z,1.70
2019-06-07T12:43:04.933Z,1.70
2019-06-07T12:45:44.527Z,1.70
2019-06-07T12:48:05.575Z,1.70
2019-06-07T12:50:42.663Z,1.90
2019-06-07T12:53:28.074Z,1.73
2019-06-07T12:55:59.984Z,1.90
2019-06-07T12:58:34.478Z,1.80
2019-06-07T13:00:59.828Z,1.80
2019-06-07T13:03:29.587Z,1.70
2019-06-07T13:05:58.916Z,1.80
2019-06-07T13:08:28.438Z,1.70
2019-06-07T13:11:13.662Z,1.87
2019-06-07T13:13:29.109Z,1.87
2019-06-07T13:15:59.161Z,1.80
2019-06-07T13:18:28.644Z,1.97
2019-06-07T13:20:58.172Z,2.00
2019-06-07T13:23:28.880Z,1.73
2019-06-07T13:25:58.769Z,1.93
2019-06-07T13:28:28.940Z,1.70
2019-06-07T13:30:58.393Z,1.83
2019-06-07T13:33:35.437Z,1.83
2019-06-07T13:35:58.968Z,2.10
2019-06-07T13:38:29.104Z,2.00
2019-06-07T13:40:58.561Z,1.83
2019-06-07T13:43:28.438Z,1.73
2019-06-07T13:45:57.828Z,2.00
2019-06-07T13:48:27.827Z,1.90
2019-06-07T13:50:58.113Z,1.93
2019-06-07T13:53:28.932Z,1.80
2019-06-07T13:55:58.732Z,1.80
2019-06-07T13:58:28.724Z,1.90
2019-06-07T14:00:58.133Z,2.20
2019-06-07T14:03:32.740Z,1.93
2019-06-07T14:05:59.150Z,1.87
2019-06-07T14:08:29.735Z,1.50
2019-06-07T14:10:59.188Z,1.50
2019-06-07T14:13:28.399Z,1.27
2019-06-07T14:15:57.663Z,1.57
2019-06-07T14:18:26.907Z,1.20
2019-06-07T14:20:58.832Z,1.60
2019-06-07T14:23:42.730Z,1.40
2019-06-07T14:25:58.508Z,1.53
2019-06-07T14:28:31.801Z,1.57
2019-06-07T14:30:59.483Z,1.30
2019-06-07T14:33:30.155Z,1.50
2019-06-07T14:35:59.898Z,1.60
2019-06-07T14:38:31.273Z,1.20
2019-06-07T14:41:00.489Z,1.50
2019-06-07T14:43:31.610Z,1.50
2019-06-07T14:46:01.124Z,1.20
2019-06-07T14:48:30.696Z,1.43
2019-06-07T14:50:59.957Z,1.30
2019-06-07T14:53:30.716Z,1.27
2019-06-07T14:56:00.330Z,1.50
2019-06-07T14:58:29.613Z,1.17
2019-06-07T15:00:58.899Z,1.30
2019-06-07T15:03:28.430Z,1.53
2019-06-07T15:05:57.719Z,1.27
2019-06-07T15:08:28.451Z,1.10
2019-06-07T15:10:57.801Z,1.20
2019-06-07T15:13:27.538Z,1.27
2019-06-07T15:15:56.883Z,1.10
2019-06-07T15:18:27.621Z,1.20
2019-06-07T15:20:57.082Z,1.30
2019-06-07T15:23:27.025Z,1.10
2019-06-07T15:25:56.489Z,1.30
2019-06-07T15:28:25.755Z,1.30
2019-06-07T15:30:55.342Z,1.47
2019-06-07T15:33:24.726Z,1.10
2019-06-07T15:35:53.967Z,1.30
2019-06-07T15:38:23.630Z,1.10
2019-06-07T15:40:52.859Z,1.20
2019-06-07T15:43:22.035Z,1.10
2019-06-07T15:45:51.278Z,1.30
2019-06-07T15:48:20.535Z,1.27
2019-06-07T15:50:50.135Z,1.23
2019-06-07T15:53:19.723Z,1.00
2019-06-07T15:55:48.961Z,1.27
2019-06-07T15:58:18.660Z,1.07
2019-06-07T16:00:50.006Z,1.10
2019-06-07T16:03:18.860Z,1.17
2019-06-07T16:05:48.209Z,1.30
2019-06-07T16:08:17.542Z,1.10
2019-06-07T16:10:46.710Z,1.10
2019-06-07T16:13:16.010Z,1.20
2019-06-07T16:15:45.710Z,1.10
2019-06-07T16:18:14.948Z,1.10
2019-06-07T16:20:44.218Z,1.27
2019-06-07T16:23:13.827Z,1.10
2019-06-07T16:25:44.254Z,1.00
2019-06-07T16:28:13.776Z,1.20
2019-06-07T16:30:43.097Z,1.30
2019-06-07T16:33:12.774Z,1.20
2019-06-07T16:35:43.202Z,1.10
2019-06-07T16:38:12.986Z,1.30
2019-06-07T16:40:42.501Z,1.20
2019-06-07T16:43:17.964Z,1.20
2019-06-07T16:45:43.082Z,1.00
2019-06-07T16:48:12.679Z,1.10
2019-06-07T16:50:42.953Z,1.20
2019-06-07T16:53:12.425Z,1.10
2019-06-07T16:55:42.739Z,1.17
2019-06-07T16:58:12.328Z,1.30
2019-06-07T17:00:42.255Z,1.27
2019-06-07T17:03:11.957Z,1.13
2019-06-07T17:05:45.051Z,1.10
2019-06-07T17:08:12.530Z,1.00
2019-06-07T17:10:42.528Z,1.20
2019-06-07T17:13:12.113Z,1.20
2019-06-07T17:15:42.682Z,1.10
2019-06-07T17:18:12.079Z,1.07
2019-06-07T17:20:41.433Z,1.30
2019-06-07T17:23:10.971Z,1.10
2019-06-07T17:25:41.342Z,1.00
2019-06-07T17:28:10.637Z,1.30
2019-06-07T17:30:39.939Z,1.10
2019-06-07T17:33:09.249Z,1.23
2019-06-07T17:35:40.112Z,1.40
2019-06-07T17:38:09.481Z,1.17
2019-06-07T17:40:38.724Z,1.20
2019-06-07T17:43:07.953Z,1.03
2019-06-07T17:45:37.633Z,1.40
2019-06-07T17:48:06.890Z,1.10
2019-06-07T17:50:36.146Z,1.20
2019-06-07T17:53:05.398Z,1.27
2019-06-07T17:55:34.768Z,1.20
2019-06-07T17:58:04.100Z,1.20
2019-06-07T18:00:51.276Z,1.20
2019-06-07T18:03:20.695Z,1.20
2019-06-07T18:05:51.382Z,1.10
2019-06-07T18:08:22.160Z,1.20
2019-06-07T18:10:52.074Z,1.20
2019-06-07T18:13:21.495Z,1.30
2019-06-07T18:15:56.461Z,1.20
2019-06-07T18:18:22.495Z,1.20
2019-06-07T18:20:51.846Z,1.20
2019-06-07T18:23:21.362Z,1.30
2019-06-07T18:25:50.678Z,1.30
2019-06-07T18:28:20.024Z,1.43
2019-06-07T18:30:50.703Z,1.17
2019-06-07T18:33:20.412Z,1.20
2019-06-07T18:35:51.219Z,1.27
2019-06-07T18:38:21.347Z,1.00
2019-06-07T18:40:51.243Z,1.40
2019-06-07T18:43:20.769Z,1.20
2019-06-07T18:45:51.428Z,1.30
2019-06-07T18:48:20.836Z,0.97
2019-06-07T18:50:50.669Z,1.40
2019-06-07T18:53:20.042Z,1.20
2019-06-07T18:55:49.936Z,1.10
2019-06-07T18:58:19.300Z,1.40
2019-06-07T19:00:49.846Z,1.20
2019-06-07T19:03:19.346Z,1.37
2019-06-07T19:05:49.948Z,1.10
2019-06-07T19:08:19.389Z,1.17
2019-06-07T19:10:48.728Z,1.20
2019-06-07T19:13:18.580Z,1.27
2019-06-07T19:15:49.284Z,1.13
2019-06-07T19:18:18.633Z,1.20
2019-06-07T19:20:48.209Z,1.00
2019-06-07T19:23:17.535Z,1.20
2019-06-07T19:25:46.896Z,1.20
2019-06-07T19:28:16.494Z,1.20
2019-06-07T19:30:46.006Z,1.10
2019-06-07T19:33:15.326Z,1.10
2019-06-07T19:35:44.506Z,1.20
2019-06-07T19:38:16.899Z,1.10
2019-06-07T19:40:45.123Z,1.30
2019-06-07T19:43:14.463Z,1.10
2019-06-07T19:45:43.967Z,1.10
2019-06-07T19:48:13.303Z,1.00
2019-06-07T19:50:42.585Z,1.40
2019-06-07T19:53:11.921Z,1.10
2019-06-07T19:55:41.218Z,1.27
2019-06-07T19:58:10.468Z,1.27
2019-06-07T20:00:39.873Z,1.17
2019-06-07T20:03:09.101Z,1.30
2019-06-07T20:05:38.482Z,1.27
2019-06-07T20:08:07.673Z,1.20
2019-06-07T20:10:36.939Z,1.13
2019-06-07T20:13:06.113Z,1.20
2019-06-07T20:15:35.761Z,1.30
2019-06-07T20:18:05.542Z,1.57
2019-06-07T20:20:35.136Z,1.20
2019-06-07T20:23:05.322Z,1.40
2019-06-07T20:25:34.800Z,1.33
2019-06-07T20:28:05.426Z,1.27
2019-06-07T20:30:35.396Z,1.50
2019-06-07T20:33:06.017Z,1.10
2019-06-07T20:35:35.506Z,1.63
2019-06-07T20:38:05.672Z,1.33
2019-06-07T20:40:35.085Z,1.30
2019-06-07T20:43:05.637Z,1.00
2019-06-07T20:45:35.228Z,1.20
2019-06-07T20:48:04.483Z,1.27
2019-06-07T20:50:33.736Z,1.33
2019-06-07T20:53:03.212Z,1.17
2019-06-07T20:55:32.618Z,1.00
2019-06-07T20:58:03.707Z,1.30
2019-06-07T21:00:33.204Z,1.23
2019-06-07T21:03:03.311Z,1.10
2019-06-07T21:05:35.115Z,1.30
2019-06-07T21:08:08.930Z,1.47
2019-06-07T21:10:35.556Z,1.43
2019-06-07T21:13:05.965Z,1.40
2019-06-07T21:15:47.881Z,1.20
2019-06-07T21:18:16.273Z,1.13
2019-06-07T21:20:37.250Z,1.40
2019-06-07T21:23:06.850Z,1.23
2019-06-07T21:25:36.477Z,1.27
2019-06-07T21:28:07.281Z,1.10
2019-06-07T21:30:36.633Z,1.30
2019-06-07T21:33:05.871Z,1.20
2019-06-07T21:35:35.137Z,1.30
2019-06-07T21:38:05.963Z,1.20
2019-06-07T21:40:35.405Z,1.17
2019-06-07T21:43:04.651Z,1.00
2019-06-07T21:45:34.281Z,1.30
2019-06-07T21:48:05.049Z,1.30
2019-06-07T21:50:34.350Z,1.60
2019-06-07T21:53:04.523Z,1.03
2019-06-07T21:55:33.821Z,1.10
2019-06-07T21:58:03.113Z,1.30
2019-06-07T22:01:11.966Z,1.50
2019-06-07T22:03:41.440Z,1.17
2019-06-07T22:06:11.747Z,1.30
2019-06-07T22:08:41.146Z,1.27
2019-06-07T22:11:10.344Z,1.30
2019-06-07T22:13:40.052Z,1.40
2019-06-07T22:16:24.557Z,1.20
2019-06-07T22:18:40.241Z,1.20
2019-06-07T22:21:10.652Z,1.53
2019-06-07T22:23:43.469Z,1.50
2019-06-07T22:26:11.326Z,1.43
2019-06-07T22:28:40.640Z,1.33
2019-06-07T22:31:10.731Z,1.37
2019-06-07T22:33:40.156Z,1.47
2019-06-07T22:36:09.329Z,1.37
2019-06-07T22:38:38.545Z,1.50
2019-06-07T22:41:07.768Z,1.40
2019-06-07T22:43:36.932Z,1.50
2019-06-07T22:46:06.728Z,1.23
2019-06-07T22:48:36.078Z,1.63
2019-06-07T22:51:09.390Z,1.40
2019-06-07T22:53:42.461Z,1.40
2019-06-07T22:56:38.097Z,1.87
2019-06-07T22:59:08.350Z,1.87
2019-06-07T23:01:38.552Z,1.40
2019-06-07T23:04:08.500Z,1.43
2019-06-07T23:06:38.032Z,1.63
2019-06-07T23:09:08.810Z,1.47
2019-06-07T23:11:38.034Z,1.60
2019-06-07T23:14:07.306Z,1.43
2019-06-07T23:16:51.598Z,1.47
2019-06-07T23:19:07.744Z,1.77
2019-06-07T23:21:37.335Z,1.40
2019-06-07T23:24:06.640Z,1.80
2019-06-07T23:26:35.864Z,1.50
2019-06-07T23:29:05.725Z,1.60
2019-06-07T23:31:35.223Z,1.40
2019-06-07T23:34:04.852Z,1.90
2019-06-07T23:36:34.082Z,1.43
2019-06-07T23:39:03.596Z,1.73
2019-06-07T23:41:32.743Z,1.70
2019-06-07T23:44:01.917Z,1.40
2019-06-07T23:46:31.559Z,1.57
2019-06-07T23:49:00.768Z,1.80
2019-06-07T23:51:30.023Z,1.50
2019-06-07T23:53:59.279Z,1.63
2019-06-07T23:56:28.440Z,1.70
2019-06-07T23:58:57.838Z,1.60
